Accueil
METAR-TAF:

METAR-TAF

Aéroports :

Nouvel aéroport d'Islamabad

Islamabad, Pakistan

latitude: 33-32-57N, longitude: 072-49-32E, altitude: 537 m

Observation

Le bulletin a été fait il y a 16 minutes, à 02:25 UTC
Vent 8 kt de ouest/sud-ouest
Température 6°C
Humidité 100%
Pression 1019 hPa
Visibilité: 5000 m
brume

METAR: OPIS 220225Z 25008KT 5000 BR NSC 06/06 Q1019 RH100

Heure: 07:41 (02:41 UTC)

Prévision

Le bulletin a été fait il y a 5 heures et 41 minutes, à 21:00 UTC
Prévision valable du 22 à 00 UTC au 23 à 06 UTC
Vent 10 kt de ouest/nord-ouest
Visibilité: 5000 m
brume sèche
Temporairement
du 22 à 00 UTC au 22 à 04 UTC
Vent 6 kt de ouest/sud-ouest
Visibilité: 0500 m
brouillard
Temporairement
du 22 à 05 UTC au 22 à 10 UTC
Vent 12 kt de ouest
Visibilité: 6000 m
Quelques nuages à une hauteur de 4000 ft

TAF: OPIS 212100Z 2200/2306 30010KT 5000 HZ NSC TEMPO 2200/2204 24006KT 0500 FG TEMPO 2205/2210 27012KT 6000 FEW040

Observations et prévisions météorologiques de plus de 4000 aéroports (messages METAR et TAF).

Les stations disponibles sont représentées par des disques jaunes et rouges sur la carte.

Passer la souris dessus pour voir le nom de la station.

Cliquer dessus pour voir les observations et prévisions météorologiques.

Pour changer de carte: cliquez sur les boutons verts avec une croix noire pour zoomer, sur le bouton vert avec un tiret pour effectuer un zoom arrière, ou sur les flèches vertes pour les cartes adjacentes.


METAR-TAF: